Latest Weather Observations for Eucla

IDW60801

Issued at 11:03 am WST Thursday 30 June 2016 (issued every 30 minutes, with the page automatically refreshed every 10 minutes)

About weather observations | Map of weather stations | Latest weather observations for WA | Other Formats
Station Details ID: 011003 Name: EUCLA Lat: -31.68 Lon: 128.90 Height: 93.1 m
Data from the previous 72 hours. | See also: Recent months at Eucla
Date/Time
WST
Temp
°C
App
Temp
°C
Dew
Point
°C
Rel
Hum
%
Delta-T
°C
Wind Press
QNH
hPa
Press
MSL
hPa
Rain since
9am
mm
Dir  Spd
km/h
Gust
km/h
Spd
kts
Gust
kts
30/11:00am 17.5 13.5 8.1 54 4.8 SSW 19 32 10 17 1023.4 1023.4 0.0
30/10:30am 17.0 13.8 8.4 57 4.4 SW 15 24 8 13 1023.7 1023.7 0.0
30/10:00am 16.4 13.2 8.6 60 4.0 SW 15 26 8 14 1023.8 1023.8 0.0
30/09:30am 15.9 12.4 8.9 63 3.6 WSW 17 26 9 14 1023.9 1023.9 0.0
30/09:00am 14.5 11.8 8.9 69 2.8 WSW 13 22 7 12 1023.9 1023.9 0.0
30/08:30am 13.3 11.1 9.2 76 2.1 WNW 11 17 6 9 1023.6 1023.6 0.0
30/08:00am 11.7 9.0 9.1 84 1.3 WNW 13 17 7 9 1023.3 1023.3 0.0
30/07:30am 10.6 8.2 8.7 88 0.9 WNW 11 17 6 9 1023.0 1023.0 0.0
30/07:00am 9.7 7.2 8.1 90 0.8 WNW 11 17 6 9 1022.5 1022.5 0.0
30/06:30am 11.3 9.2 9.6 89 0.9 NW 11 13 6 7 1022.1 1022.1 0.0
30/06:00am 11.1 8.5 9.4 89 0.9 WNW 13 17 7 9 1021.7 1021.7 0.0
30/05:30am 11.4 9.2 9.5 88 1.0 WNW 11 15 6 8 1021.3 1021.3 0.0
30/05:00am 11.0 8.9 9.8 92 0.6 WNW 11 15 6 8 1020.7 1020.7 0.0
30/04:30am 10.1 7.7 8.7 91 0.7 WNW 11 17 6 9 1020.4 1020.4 0.0
30/04:00am 10.1 7.7 8.7 91 0.7 WNW 11 15 6 8 1020.3 1020.3 0.0
30/03:30am 10.8 9.0 9.6 92 0.6 WNW 9 13 5 7 1020.1 1020.1 0.0
30/03:00am 11.9 10.4 10.5 91 0.7 NW 9 13 5 7 1019.7 1019.6 0.0
30/02:30am 12.0 9.4 10.7 92 0.7 WSW 15 24 8 13 1019.7 1019.6 0.0
30/02:00am 12.4 10.3 11.1 92 0.7 W 13 20 7 11 1019.3 1019.2 0.0
30/01:30am 12.4 10.6 10.8 90 0.8 W 11 19 6 10 1019.3 1019.2 0.0
30/01:00am 12.6 11.2 11.0 90 0.8 WNW 9 15 5 8 1018.9 1018.9 0.0
30/12:30am 13.1 11.5 11.5 90 0.9 WNW 11 15 6 8 1018.8 1018.8 0.0
30/12:00am 12.4 10.4 10.3 87 1.1 WNW 11 15 6 8 1018.8 1018.8 0.0
 
Date/Time
WST
Temp
°C
App
Temp
°C
Dew
Point
°C
Rel
Hum
%
Delta-T
°C
Wind Press
QNH
hPa
Press
MSL
hPa
Rain since
9am
mm
Dir  Spd
km/h
Gust
km/h
Spd
kts
Gust
kts
29/11:30pm 13.5 11.8 11.2 86 1.2 W 11 15 6 8 1018.9 1018.9 0.0
29/11:00pm 13.8 11.7 11.3 85 1.3 W 13 17 7 9 1018.8 1018.8 0.0
29/10:30pm 13.9 11.8 11.2 84 1.4 WSW 13 17 7 9 1018.8 1018.8 0.0
29/10:00pm 13.6 11.5 11.0 84 1.4 WSW 13 19 7 10 1018.6 1018.6 0.0
29/09:30pm 13.7 11.5 10.7 82 1.6 WSW 13 17 7 9 1018.4 1018.4 0.0
29/09:00pm 13.8 11.5 10.4 80 1.8 WSW 13 17 7 9 1018.2 1018.2 0.0
29/08:30pm 14.1 12.2 10.5 79 1.9 WSW 11 17 6 9 1017.9 1017.9 0.0
29/08:00pm 14.6 12.7 10.6 77 2.1 WSW 11 15 6 8 1017.7 1017.7 0.0
29/07:30pm 14.9 13.1 10.7 76 2.2 WSW 11 15 6 8 1017.4 1017.4 0.0
29/07:00pm 15.0 13.2 10.8 76 2.2 WSW 11 15 6 8 1017.0 1017.0 0.0
29/06:30pm 14.8 13.4 10.8 77 2.1 WSW 9 15 5 8 1016.9 1016.9 0.0
29/06:00pm 15.5 14.0 10.5 72 2.6 SW 9 15 5 8 1016.5 1016.5 0.0
29/05:30pm 15.5 13.7 10.7 73 2.6 SW 11 17 6 9 1016.2 1016.2 0.0
29/05:00pm 15.9 14.2 11.1 73 2.6 SW 11 19 6 10 1015.7 1015.7 0.0
29/04:30pm 16.2 13.8 11.4 73 2.6 SW 15 24 8 13 1015.3 1015.3 0.0
29/04:00pm 18.8 15.6 10.1 57 4.7 W 17 30 9 16 1014.6 1014.6 0.0
29/03:30pm 21.5 17.2 7.0 39 7.5 WNW 19 30 10 16 1013.9 1013.9 0.0
29/03:00pm 21.7 17.2 6.8 38 7.6 WNW 20 32 11 17 1013.6 1013.6 0.0
29/02:30pm 22.2 17.2 6.4 36 8.1 WNW 22 33 12 18 1013.2 1013.2 0.0
29/02:00pm 22.4 17.0 6.2 35 8.2 WNW 24 37 13 20 1013.6 1013.6 0.0
29/01:30pm 22.6 16.7 6.0 34 8.4 WNW 26 37 14 20 1013.6 1013.6 0.0
29/01:00pm 22.3 15.8 4.8 32 8.7 NW 28 39 15 21 1013.8 1013.8 0.0
29/12:30pm 21.8 16.1 4.8 33 8.4 WNW 24 37 13 20 1014.1 1014.1 0.0
29/12:00pm 22.0 16.3 5.0 33 8.4 NW 24 33 13 18 1014.6 1014.6 0.0
29/11:30am 21.8 15.8 5.3 34 8.2 WNW 26 35 14 19 1015.0 1015.0 0.0
29/11:00am 20.6 14.8 4.6 35 7.8 WNW 24 35 13 19 1015.6 1015.6 0.0
29/10:30am 19.9 14.2 4.8 37 7.4 NW 24 33 13 18 1016.1 1016.1 0.0
29/10:00am 18.3 13.3 4.8 41 6.5 NW 20 30 11 16 1016.5 1016.5 0.0
29/09:30am 17.0 12.0 4.7 44 5.9 NNW 20 32 11 17 1016.8 1016.8 0.0
29/09:00am 15.3 9.8 4.1 47 5.2 NNW 22 32 12 17 1017.0 1017.0 0.0
29/08:30am 13.3 7.4 3.9 53 4.3 NNW 24 33 13 18 1016.9 1016.9 0.0
29/08:00am 11.1 5.5 3.4 59 3.4 NNW 22 32 12 17 1016.9 1016.9 0.0
29/07:30am 9.7 4.4 3.0 63 2.9 NNW 20 33 11 18 1016.8 1016.8 0.0
29/07:00am 8.3 3.2 2.8 68 2.3 NNW 19 24 10 13 1016.6 1016.6 0.0
29/06:30am 6.5 1.6 2.2 74 1.8 NNW 17 24 9 13 1016.4 1016.4 0.0
29/06:00am 6.3 1.4 2.2 75 1.7 NNW 17 24 9 13 1016.1 1016.1 0.0
29/05:30am 5.9 1.4 2.0 76 1.6 N 15 19 8 10 1016.1 1016.1 0.0
29/05:00am 6.2 1.7 2.1 75 1.7 N 15 19 8 10 1016.0 1016.0 0.0
29/04:30am 6.4 1.9 2.1 74 1.8 N 15 19 8 10 1015.8 1015.8 0.0
29/04:00am 6.2 1.7 2.1 75 1.7 N 15 20 8 11 1016.0 1016.0 0.0
29/03:30am 6.2 1.7 2.1 75 1.7 N 15 19 8 10 1015.9 1015.9 0.0
29/03:00am 5.9 1.8 2.0 76 1.6 N 13 15 7 8 1016.2 1016.2 0.0
29/02:30am 6.3 2.2 2.4 76 1.6 N 13 17 7 9 1016.3 1016.3 0.0
29/02:00am 6.3 2.2 2.4 76 1.6 N 13 17 7 9 1016.5 1016.5 0.0
29/01:30am 6.2 1.7 2.3 76 1.6 N 15 19 8 10 1016.8 1016.8 0.0
29/01:00am 6.8 2.8 2.7 75 1.7 N 13 15 7 8 1017.0 1017.0 0.0
29/12:30am 6.9 2.9 2.8 75 1.7 N 13 17 7 9 1017.2 1017.2 0.0
29/12:00am 7.2 3.2 2.7 73 1.9 N 13 17 7 9 1017.4 1017.4 0.0
 
Date/Time
WST
Temp
°C
App
Temp
°C
Dew
Point
°C
Rel
Hum
%
Delta-T
°C
Wind Press
QNH
hPa
Press
MSL
hPa
Rain since
9am
mm
Dir  Spd
km/h
Gust
km/h
Spd
kts
Gust
kts
28/11:30pm 7.9 3.6 3.0 71 2.1 N 15 19 8 10 1017.6 1017.6 0.0
28/11:00pm 7.6 3.6 2.9 72 2.0 N 13 17 7 9 1017.8 1017.8 0.0
28/10:30pm 8.1 4.2 3.2 71 2.1 N 13 17 7 9 1018.0 1018.0 0.0
28/10:00pm 8.8 4.5 3.2 68 2.4 N 15 19 8 10 1018.2 1018.2 0.0
28/09:30pm 9.6 5.7 3.6 66 2.6 N 13 19 7 10 1018.4 1018.4 0.0
28/09:00pm 10.1 5.9 3.8 65 2.8 N 15 19 8 10 1018.3 1018.3 0.0
28/08:30pm 9.6 5.7 3.6 66 2.6 N 13 17 7 9 1018.4 1018.4 0.0
28/08:00pm 10.0 6.1 3.5 64 2.8 N 13 17 7 9 1018.7 1018.7 0.0
28/07:30pm 10.3 6.1 3.6 63 2.9 N 15 17 8 9 1018.6 1018.6 0.0
28/07:00pm 10.4 6.5 3.4 62 3.1 NNE 13 17 7 9 1018.7 1018.7 0.0
28/06:30pm 10.7 6.8 3.5 61 3.2 NNE 13 15 7 8 1018.7 1018.7 0.0
28/06:00pm 11.3 7.4 3.6 59 3.4 N 13 15 7 8 1018.5 1018.5 0.0
28/05:30pm 11.8 7.9 3.6 57 3.7 N 13 15 7 8 1018.2 1018.2 0.0
28/05:00pm 13.0 9.5 3.4 52 4.3 N 11 13 6 7 1017.9 1017.9 0.0
28/04:30pm 15.1 11.2 3.6 46 5.3 N 13 17 7 9 1017.9 1017.9 0.0
28/04:00pm 16.4 11.8 3.5 42 6.0 N 17 26 9 14 1017.8 1017.8 0.0
28/03:30pm 17.4 12.7 3.0 38 6.6 N 17 28 9 15 1017.9 1017.9 0.0
28/03:00pm 17.9 12.5 2.6 36 7.0 N 20 32 11 17 1018.0 1018.0 0.0
28/02:30pm 18.1 12.7 2.4 35 7.2 N 20 28 11 15 1017.9 1017.9 0.0
28/02:00pm 18.2 13.0 2.5 35 7.2 N 19 32 10 17 1017.9 1017.9 0.0
28/01:30pm 17.9 12.7 3.4 38 6.8 N 20 30 11 16 1018.2 1018.2 0.0
28/01:00pm 17.8 12.8 3.7 39 6.6 N 19 28 10 15 1018.9 1018.9 0.0
28/12:30pm 17.7 12.2 3.9 40 6.5 NNW 22 35 12 19 1019.7 1019.6 0.0
28/12:00pm 18.0 12.2 4.2 40 6.5 NNW 24 33 13 18 1020.5 1020.5 0.0
28/11:30am 17.3 11.8 3.9 41 6.3 NNW 22 35 12 19 1021.1 1021.1 0.0
28/11:00am 17.0 12.0 4.7 44 5.8 NNW 20 32 11 17 1021.8 1021.8 0.0
28/10:30am 16.2 11.1 4.3 45 5.6 N 20 32 11 17 1022.6 1022.6 0.0
28/10:00am 15.1 10.1 4.8 50 4.8 N 20 32 11 17 1023.3 1023.3 0.0
28/09:30am 14.6 9.2 4.6 51 4.7 N 22 33 12 18 1023.6 1023.6 0.0
28/09:00am 13.3 8.5 4.5 55 4.0 N 19 30 10 16 1023.8 1023.8 0.0
28/08:30am 11.3 6.7 3.6 59 3.4 N 17 28 9 15 1023.8 1023.8 0.0
28/08:00am 10.3 5.1 3.3 62 3.0 N 20 30 11 16 1023.7 1023.7 0.0
28/07:30am 8.7 3.4 2.9 67 2.5 N 20 30 11 16 1023.5 1023.5 0.0
28/07:00am 6.7 1.5 2.4 74 1.8 N 19 24 10 13 1023.5 1023.5 0.0
28/06:30am 5.7 0.5 2.2 78 1.4 N 19 26 10 14 1023.1 1023.1 0.0
28/06:00am 5.8 0.9 2.3 78 1.4 N 17 26 9 14 1022.9 1022.9 0.0
28/05:30am 6.2 1.0 2.3 76 1.6 N 19 26 10 14 1022.6 1022.6 0.0
28/05:00am 6.4 1.6 2.5 76 1.6 N 17 24 9 13 1022.3 1022.3 0.0
28/04:30am 6.7 1.9 2.6 75 1.7 N 17 26 9 14 1022.2 1022.2 0.0
28/04:00am 7.0 2.2 2.5 73 1.9 N 17 24 9 13 1022.3 1022.3 0.0
28/03:30am 7.2 2.4 2.5 72 2.0 N 17 24 9 13 1022.3 1022.3 0.0
28/03:00am 7.0 2.5 2.3 72 1.9 NNE 15 20 8 11 1022.4 1022.4 0.0
28/02:30am 6.8 2.3 2.1 72 1.9 NNE 15 19 8 10 1022.4 1022.4 0.0
28/02:00am 6.1 1.5 1.6 73 1.8 N 15 19 8 10 1022.6 1022.6 0.0
28/01:30am 6.3 1.7 1.8 73 1.8 N 15 17 8 9 1022.5 1022.5 0.0
28/01:00am 4.6 0.3 0.9 77 1.4 N 13 15 7 8 1022.8 1022.8 0.0
28/12:30am 4.2 -0.1 1.1 80 1.2 N 13 15 7 8 1022.8 1022.8 0.0
28/12:00am 4.4 0.1 1.3 80 1.2 N 13 13 7 7 1023.0 1023.0 0.0
 
Date/Time
WST
Temp
°C
App
Temp
°C
Dew
Point
°C
Rel
Hum
%
Delta-T
°C
Wind Press
QNH
hPa
Press
MSL
hPa
Rain since
9am
mm
Dir  Spd
km/h
Gust
km/h
Spd
kts
Gust
kts
27/11:30pm 4.3 0.0 1.3 81 1.2 N 13 13 7 7 1023.4 1023.4 0.0
27/11:00pm 4.8 1.0 1.7 80 1.2 N 11 13 6 7 1023.4 1023.4 0.0
27/10:30pm 5.6 1.4 1.9 77 1.5 N 13 15 7 8 1023.3 1023.3 0.0
27/10:00pm 6.0 1.6 2.5 78 1.4 N 15 17 8 9 1023.5 1023.5 0.0
27/09:30pm 6.1 2.1 2.6 78 1.4 N 13 15 7 8 1023.7 1023.7 0.0
27/09:00pm 7.0 3.0 3.1 76 1.6 NNE 13 15 7 8 1023.5 1023.5 0.0
27/08:30pm 7.7 3.8 3.4 74 1.8 NNE 13 15 7 8 1023.5 1023.5 0.0
27/08:00pm 8.4 5.0 3.8 73 2.0 NE 11 15 6 8 1023.5 1023.5 0.0
27/07:30pm 9.0 5.7 4.4 73 2.0 NE 11 13 6 7 1023.7 1023.7 0.0
27/07:00pm 9.8 6.6 5.0 72 2.2 NE 11 15 6 8 1023.8 1023.8 0.0
27/06:30pm 10.3 6.8 5.3 71 2.3 NE 13 15 7 8 1023.6 1023.6 0.0
27/06:00pm 10.4 7.2 5.0 69 2.4 NE 11 13 6 7 1023.6 1023.6 0.0
27/05:30pm 10.1 6.7 4.0 66 2.7 NE 11 13 6 7 1023.3 1023.3 0.0
27/05:00pm 9.6 6.8 2.9 63 2.9 N 7 9 4 5 1023.1 1023.1 0.0
27/04:30pm 11.5 8.7 3.3 57 3.6 NNW 7 9 4 5 1022.9 1022.9 0.0
27/04:00pm 14.8 11.2 3.0 45 5.3 N 11 15 6 8 1022.8 1022.8 0.0
27/03:30pm 16.3 12.2 2.3 39 6.3 NW 13 19 7 10 1022.7 1022.7 0.0
27/03:00pm 17.2 14.0 2.8 38 6.6 NW 9 17 5 9 1022.8 1022.8 0.0
27/02:30pm 17.1 13.1 2.7 38 6.6 NNW 13 19 7 10 1022.8 1022.8 0.0
27/02:00pm 17.6 13.6 2.8 37 6.8 NNW 13 19 7 10 1022.8 1022.8 0.0
27/01:30pm 17.4 13.5 3.3 39 6.5 NNW 13 19 7 10 1022.9 1022.9 0.0
27/01:00pm 17.6 13.7 3.5 39 6.6 NNW 13 20 7 11 1023.1 1023.1 0.0
27/12:30pm 17.0 13.9 3.7 41 6.2 W 9 15 5 8 1023.6 1023.6 0.0
27/12:00pm 17.1 13.8 4.4 43 6.0 W 11 19 6 10 1024.1 1024.1 0.0
27/11:30am 16.5 12.8 4.5 45 5.7 WNW 13 20 7 11 1024.6 1024.6 0.0

Other Formats:

Comma delimited format used in spreadsheet applications
http://www.bom.gov.au/fwo/IDW60801/IDW60801.94647.axf

JavaScript Object Notation format (JSON) in row-major order
http://www.bom.gov.au/fwo/IDW60801/IDW60801.94647.json